Accueil
METAR-TAF:

METAR-TAF

Aéroports :

Aéroport de Londres-Southend

Londres-Southend, Angleterre

latitude: 51-34N, longitude: 000-42E, altitude: 15 m

Observation

Le bulletin a été fait il y a 1 heure et 12 minutes, à 00:50 UTC
Vent 11 kt de ouest/sud-ouest
Température 4°C
Humidité 87%
Pression 1000 hPa
Visibilité 10 km ou plus
pas de nuages en-dessous de 1500 mètres et pas de cumulonimbus.

METAR: EGMC 120050Z 24011KT CAVOK 04/02 Q1000

Heure: 02:02 (02:02 UTC)

Prévision

Le bulletin a été fait il y a 3 heures et 9 minutes, à 22:53 UTC
Prévision valable du 12 à 00 UTC au 12 à 09 UTC
Vent 12 kt de ouest/sud-ouest
Visibilité 10 km ou plus
pas de nuages en-dessous de 1500 mètres et pas de cumulonimbus.

TAF: EGMC 112253Z 1200/1209 25012KT CAVOK

Observations et prévisions météorologiques de plus de 4000 aéroports (messages METAR et TAF).

Les stations disponibles sont représentées par des disques jaunes et rouges sur la carte.

Passer la souris dessus pour voir le nom de la station.

Cliquer dessus pour voir les observations et prévisions météorologiques.

Pour changer de carte: cliquez sur les boutons verts avec une croix noire pour zoomer, sur le bouton vert avec un tiret pour effectuer un zoom arrière, ou sur les flèches vertes pour les cartes adjacentes.


METAR-TAF: